Terminal Aerodrome Forecast
Issued by NWS

Home | Current Version | Previous Version | Text Only | Print | Product List | Glossary Off
Versions: 1 2 3 4 5 6 7 8 9 10 11 12 13 14 15 16 17

000
FTUS43 KAPX 271035 AAA
TAFTVC
TAF AMD
KTVC 271035Z 2711/2806 00000KT P6SM SKC
     FM271500 25007KT P6SM SCT040
     FM280000 22004KT P6SM SCT035=

USA.gov is the U.S. government's official web portal to all federal, state and local government web resources and services.